Time;durP1;ratioP1;P1;durP2;ratioP2;P2;SDS_P1;SDS_P2;PMS_P1;PMS_P2;Temp;Humidity;BMP_temperature;BMP_pressure;BME280_temperature;BME280_humidity;BME280_pressure;Samples;Min_cycle;Max_cycle;Signal;HPM_P1;HPM_P2
2022/01/28 00:02:37;;;;;;;15.90;2.50;;;6.00;99.90;;;;;;4952872;29;20159;-80
2022/01/28 00:04:57;;;;;;;12.27;2.13;;;6.00;99.90;;;;;;4953802;28;20202;-79
2022/01/28 00:07:23;;;;;;;17.87;2.80;;;6.00;99.90;;;;;;4954361;28;20183;-80
2022/01/28 00:09:48;;;;;;;9.27;2.33;;;6.00;99.90;;;;;;4953032;29;20545;-80
2022/01/28 00:12:14;;;;;;;12.90;2.40;;;6.00;99.90;;;;;;4954043;29;20257;-79
2022/01/28 00:36:43;;;;;;;22.17;2.73;;;5.90;99.90;;;;;;4953488;29;20252;-80
2022/01/28 00:39:09;;;;;;;13.70;2.43;;;5.80;99.90;;;;;;4952106;29;20170;-79
2022/01/28 00:41:35;;;;;;;14.67;2.73;;;5.80;99.90;;;;;;4951135;28;20171;-79
2022/01/28 00:44:00;;;;;;;17.97;2.83;;;5.70;99.90;;;;;;4953238;28;20186;-80
2022/01/28 00:46:26;;;;;;;14.37;2.63;;;5.70;99.90;;;;;;4951810;28;20199;-80
2022/01/28 00:48:51;;;;;;;17.87;2.23;;;5.60;99.90;;;;;;4951918;28;20653;-80
2022/01/28 00:51:17;;;;;;;17.43;2.73;;;5.60;99.90;;;;;;4952237;28;20223;-80
2022/01/28 00:53:43;;;;;;;12.93;2.73;;;5.60;99.90;;;;;;4951787;28;20202;-80
2022/01/28 00:56:08;;;;;;;19.67;2.77;;;5.50;99.90;;;;;;4952168;28;20305;-80
2022/01/28 00:58:34;;;;;;;15.57;2.30;;;5.60;99.90;;;;;;4953546;29;20183;-79
2022/01/28 01:01:00;;;;;;;13.77;2.60;;;5.50;99.90;;;;;;4953457;29;20544;-79
2022/01/28 01:03:26;;;;;;;13.73;2.57;;;5.50;99.90;;;;;;4953392;28;20171;-79
2022/01/28 01:05:51;;;;;;;11.47;2.57;;;5.50;99.90;;;;;;4951493;28;20218;-78
2022/01/28 01:08:17;;;;;;;11.77;2.10;;;5.40;99.90;;;;;;4953240;28;20187;-79
2022/01/28 01:10:43;;;;;;;14.03;2.50;;;5.40;99.90;;;;;;4953549;28;20179;-80
2022/01/28 01:13:08;;;;;;;11.43;2.10;;;5.40;99.90;;;;;;4951941;28;20688;-80
2022/01/28 01:15:39;;;;;;;19.13;2.43;;;5.40;99.90;;;;;;4953031;28;20195;-80
2022/01/28 01:18:20;;;;;;;13.47;2.43;;;5.30;99.90;;;;;;4953400;28;20171;-79
2022/01/28 01:23:28;;;;;;;16.13;2.67;;;5.30;99.90;;;;;;4954196;28;20275;-80
2022/01/28 01:26:04;;;;;;;12.47;2.33;;;5.30;99.90;;;;;;4953435;28;20684;-79
2022/01/28 01:28:36;;;;;;;15.40;2.83;;;5.30;99.90;;;;;;4953661;28;20167;-79
2022/01/28 01:31:05;;;;;;;10.47;2.10;;;5.30;99.90;;;;;;4952201;28;20182;-79
2022/01/28 01:33:37;;;;;;;11.53;2.13;;;5.30;99.90;;;;;;4953436;28;20207;-79
2022/01/28 01:36:03;;;;;;;16.80;2.97;;;5.30;99.90;;;;;;4951152;29;20206;-79
2022/01/28 01:38:33;;;;;;;14.07;2.47;;;5.40;99.90;;;;;;4951226;28;20217;-80
2022/01/28 01:41:01;;;;;;;14.17;2.67;;;5.30;99.90;;;;;;4951376;29;20179;-80
2022/01/28 01:43:41;;;;;;;11.70;2.43;;;5.30;99.90;;;;;;4952314;28;20179;-80
2022/01/28 01:46:57;;;;;;;13.87;2.57;;;5.30;99.90;;;;;;4952329;28;20211;-79
2022/01/28 01:54:27;;;;;;;17.03;2.60;;;5.30;99.90;;;;;;4956223;29;20206;-80
2022/01/28 01:56:55;;;;;;;9.97;2.73;;;5.40;99.90;;;;;;4954618;28;20671;-79
2022/01/28 01:59:21;;;;;;;16.00;3.27;;;5.40;99.90;;;;;;4956376;28;20182;-80
2022/01/28 02:01:46;;;;;;;20.90;2.90;;;5.40;99.90;;;;;;4956354;28;20171;-80
2022/01/28 02:04:12;;;;;;;12.43;2.73;;;5.40;99.90;;;;;;4956269;29;20206;-80
2022/01/28 02:06:40;;;;;;;14.90;2.40;;;5.40;99.90;;;;;;4956367;28;20202;-79
2022/01/28 02:09:06;;;;;;;14.60;3.43;;;5.40;99.90;;;;;;4956567;28;20253;-79
2022/01/28 02:11:32;;;;;;;15.80;3.30;;;5.40;99.90;;;;;;4956998;28;20183;-79
2022/01/28 02:13:57;;;;;;;18.23;3.47;;;5.50;99.90;;;;;;4956325;28;20202;-79
2022/01/28 02:16:23;;;;;;;16.30;3.53;;;5.50;99.90;;;;;;4956822;28;20214;-79
2022/01/28 02:18:49;;;;;;;17.63;3.57;;;5.50;99.90;;;;;;4954808;28;20179;-80
2022/01/28 02:21:16;;;;;;;11.63;2.87;;;5.40;99.90;;;;;;4954407;29;20179;-80
2022/01/28 02:23:46;;;;;;;16.93;2.93;;;5.40;99.90;;;;;;4954612;28;20654;-80
2022/01/28 02:26:15;;;;;;;15.67;3.97;;;5.40;99.90;;;;;;4954090;29;20205;-79
2022/01/28 02:28:42;;;;;;;13.30;2.80;;;5.50;99.90;;;;;;4954073;28;20183;-79
2022/01/28 02:31:07;;;;;;;11.33;2.10;;;5.50;99.90;;;;;;4955517;28;20213;-79
2022/01/28 02:33:33;;;;;;;14.30;2.50;;;5.40;99.90;;;;;;4955039;28;20199;-79
2022/01/28 02:36:04;;;;;;;15.17;2.70;;;5.40;99.90;;;;;;4953927;28;20604;-79
2022/01/28 02:38:30;;;;;;;17.53;2.43;;;5.40;99.90;;;;;;4953952;29;20172;-79
2022/01/28 02:40:58;;;;;;;18.50;3.33;;;5.40;99.90;;;;;;4953941;28;20644;-79
2022/01/28 02:45:56;;;;;;;15.13;2.63;;;5.30;99.90;;;;;;4961176;28;20259;-79
2022/01/28 02:48:26;;;;;;;20.17;2.37;;;5.30;99.90;;;;;;4961701;28;20332;-79
2022/01/28 02:53:26;;;;;;;11.97;1.97;;;5.20;99.90;;;;;;4955924;29;20195;-80
2022/01/28 02:56:02;;;;;;;11.93;2.23;;;5.30;99.90;;;;;;4954365;29;20206;-79
2022/01/28 02:58:27;;;;;;;18.43;2.50;;;5.30;99.90;;;;;;4956021;28;20162;-79
2022/01/28 03:00:56;;;;;;;12.30;3.10;;;5.30;99.90;;;;;;4955853;28;20167;-79
2022/01/28 03:03:23;;;;;;;12.70;2.63;;;5.30;99.90;;;;;;4955368;28;20228;-80
2022/01/28 03:05:50;;;;;;;13.93;3.20;;;5.20;99.90;;;;;;4953752;28;20770;-79
2022/01/28 03:08:17;;;;;;;13.27;3.00;;;5.30;99.90;;;;;;4954523;28;20206;-79
2022/01/28 03:10:55;;;;;;;15.50;3.47;;;5.30;99.90;;;;;;4955692;28;20309;-79
2022/01/28 03:13:46;;;;;;;12.00;2.97;;;5.20;99.90;;;;;;4953884;28;20191;-80
2022/01/28 03:16:15;;;;;;;12.23;3.53;;;5.20;99.90;;;;;;4953844;28;20210;-79
2022/01/28 03:18:51;;;;;;;14.40;3.50;;;5.20;99.90;;;;;;4954274;28;20266;-79
2022/01/28 03:22:04;;;;;;;16.53;2.37;;;5.10;99.90;;;;;;4955481;29;20676;-79
2022/01/28 03:24:08;;;;;;;11.40;3.00;;;5.10;99.90;;;;;;4962873;28;20201;-79
2022/01/28 03:26:33;;;;;;;14.97;3.60;;;5.10;99.90;;;;;;4953350;28;20696;-80
2022/01/28 03:28:59;;;;;;;17.17;2.67;;;5.10;99.90;;;;;;4953755;28;20183;-80
2022/01/28 03:31:25;;;;;;;17.20;4.30;;;5.00;99.90;;;;;;4954717;28;20589;-79
2022/01/28 03:33:50;;;;;;;23.27;3.73;;;5.10;99.90;;;;;;4954718;28;20203;-79
2022/01/28 03:36:16;;;;;;;13.00;3.57;;;5.10;99.90;;;;;;4954362;28;20203;-80
2022/01/28 03:38:46;;;;;;;11.70;3.23;;;5.10;99.90;;;;;;4953186;28;20213;-79
2022/01/28 03:41:16;;;;;;;14.10;2.90;;;5.10;99.90;;;;;;4953218;29;20171;-79
2022/01/28 03:43:42;;;;;;;17.73;3.10;;;5.10;99.90;;;;;;4953083;28;20726;-79
2022/01/28 03:46:09;;;;;;;15.20;2.70;;;5.20;99.90;;;;;;4952730;28;20203;-79
2022/01/28 03:48:35;;;;;;;17.97;3.47;;;5.10;99.90;;;;;;4954111;29;20281;-79
2022/01/28 03:51:01;;;;;;;13.77;2.10;;;5.10;99.90;;;;;;4952614;28;20709;-78
2022/01/28 03:53:26;;;;;;;13.93;2.70;;;5.10;99.90;;;;;;4953732;28;20230;-79
2022/01/28 03:55:53;;;;;;;10.20;2.50;;;5.10;99.90;;;;;;4953714;28;20257;-79
2022/01/28 03:58:19;;;;;;;15.00;2.80;;;5.00;99.90;;;;;;4952855;28;20171;-79
2022/01/28 04:00:46;;;;;;;15.90;3.23;;;5.00;99.90;;;;;;4954609;28;20175;-79
2022/01/28 04:11:26;;;;;;;19.53;5.03;;;5.00;99.90;;;;;;4954196;28;20202;-79
2022/01/28 04:11:47;;;;;;;21.33;5.70;;;5.00;99.90;;;;;;4993776;28;20251;-79
2022/01/28 04:14:19;;;;;;;15.30;4.23;;;5.00;99.90;;;;;;4961975;28;20233;-80
2022/01/28 04:19:29;;;;;;;18.70;3.00;;;4.90;99.90;;;;;;4953806;29;20178;-79
2022/01/28 04:21:54;;;;;;;11.63;2.57;;;4.80;99.90;;;;;;4953640;28;20556;-79
2022/01/28 04:24:20;;;;;;;15.50;2.83;;;4.70;99.90;;;;;;4952803;29;20660;-79
2022/01/28 04:26:46;;;;;;;11.13;2.13;;;4.70;99.90;;;;;;4953860;28;20652;-80
2022/01/28 04:29:13;;;;;;;13.80;3.17;;;4.60;99.90;;;;;;4954112;28;20219;-79
2022/01/28 04:31:42;;;;;;;15.90;2.70;;;4.50;99.90;;;;;;4954048;28;20167;-79
2022/01/28 04:34:15;;;;;;;13.30;2.37;;;4.50;99.90;;;;;;4952681;28;20199;-80
2022/01/28 04:37:02;;;;;;;6.53;2.10;;;4.40;99.90;;;;;;4954334;28;20190;-79
2022/01/28 04:39:38;;;;;;;10.97;2.53;;;4.40;99.90;;;;;;4953282;28;20179;-79
2022/01/28 04:45:20;;;;;;;11.23;2.20;;;4.40;99.90;;;;;;4954500;28;20286;-79
2022/01/28 04:47:35;;;;;;;13.87;2.87;;;4.40;99.90;;;;;;4961609;28;20198;-79
2022/01/28 04:58:21;;;;;;;9.97;2.00;;;4.30;99.90;;;;;;4935437;29;20218;-80
2022/01/28 05:03:29;;;;;;;13.27;2.27;;;4.30;99.90;;;;;;4940620;28;20180;-79
2022/01/28 05:14:10;;;;;;;9.77;2.07;;;4.20;99.90;;;;;;4958796;28;20219;-79
2022/01/28 05:27:15;;;;;;;18.07;3.00;;;4.10;99.90;;;;;;4952957;29;20183;-81
2022/01/28 05:29:41;;;;;;;14.83;3.03;;;4.10;99.90;;;;;;4953351;28;20258;-81
2022/01/28 05:32:10;;;;;;;23.10;2.70;;;4.10;99.90;;;;;;4953179;28;20256;-79
2022/01/28 05:34:37;;;;;;;12.83;3.33;;;4.10;99.90;;;;;;4951183;29;20575;-79
2022/01/28 05:37:03;;;;;;;21.13;4.63;;;4.10;99.90;;;;;;4951166;29;20195;-80
2022/01/28 05:39:28;;;;;;;15.73;4.73;;;4.10;99.90;;;;;;4952333;28;20233;-79
2022/01/28 05:41:54;;;;;;;21.13;5.30;;;4.10;99.90;;;;;;4951206;29;20187;-79
2022/01/28 05:44:20;;;;;;;17.83;4.50;;;4.10;99.90;;;;;;4952295;28;20198;-80
2022/01/28 05:46:46;;;;;;;15.63;4.00;;;4.20;99.90;;;;;;4950423;28;20191;-80
2022/01/28 05:49:13;;;;;;;22.03;4.43;;;4.20;99.90;;;;;;4952970;28;20227;-82
2022/01/28 05:51:42;;;;;;;19.20;3.90;;;4.10;99.90;;;;;;4951866;29;20189;-80
2022/01/28 05:54:09;;;;;;;16.50;3.27;;;4.00;99.90;;;;;;4952943;28;20209;-80
2022/01/28 05:56:34;;;;;;;11.00;3.67;;;4.00;99.90;;;;;;4951355;28;20207;-79
2022/01/28 05:59:00;;;;;;;20.10;3.93;;;4.00;99.90;;;;;;4951861;29;20205;-80
2022/01/28 06:01:26;;;;;;;13.57;3.40;;;4.00;99.90;;;;;;4953369;29;20179;-80
2022/01/28 06:03:51;;;;;;;19.73;3.47;;;4.10;99.90;;;;;;4952849;28;20313;-80
2022/01/28 06:06:23;;;;;;;16.73;2.83;;;4.10;99.90;;;;;;4952645;28;20195;-81
2022/01/28 06:08:50;;;;;;;16.77;3.53;;;4.30;99.90;;;;;;4952667;29;20159;-79
2022/01/28 06:11:18;;;;;;;23.03;4.10;;;4.50;99.90;;;;;;4952761;28;20183;-79
2022/01/28 06:13:44;;;;;;;21.17;3.80;;;4.60;99.90;;;;;;4952289;28;20225;-80
2022/01/28 06:16:11;;;;;;;18.83;5.07;;;4.60;99.90;;;;;;4951939;28;20665;-79
2022/01/28 06:18:37;;;;;;;14.93;3.70;;;4.70;99.90;;;;;;4952188;28;20183;-80
2022/01/28 06:21:03;;;;;;;17.43;4.83;;;4.70;99.90;;;;;;4951349;28;20184;-81
2022/01/28 06:23:29;;;;;;;25.43;4.43;;;4.70;99.90;;;;;;4953428;28;20179;-81
2022/01/28 06:25:55;;;;;;;19.77;3.67;;;4.80;99.90;;;;;;4952879;28;20253;-81
2022/01/28 06:28:21;;;;;;;16.77;3.33;;;4.80;99.90;;;;;;4953177;29;20184;-82
2022/01/28 06:30:46;;;;;;;14.97;3.33;;;4.80;99.90;;;;;;4951584;28;20183;-81
2022/01/28 06:33:13;;;;;;;17.30;3.00;;;4.90;99.90;;;;;;4953497;28;20199;-81
2022/01/28 06:35:40;;;;;;;19.83;3.57;;;5.00;99.90;;;;;;4951721;28;20309;-81
2022/01/28 06:38:05;;;;;;;16.50;2.80;;;5.10;99.90;;;;;;4952102;28;20179;-82
2022/01/28 06:40:31;;;;;;;16.37;2.57;;;5.10;99.90;;;;;;4954633;28;20183;-81
2022/01/28 06:42:56;;;;;;;11.63;2.00;;;5.30;99.90;;;;;;4956470;28;20182;-81
2022/01/28 06:45:22;;;;;;;11.53;2.53;;;5.40;99.90;;;;;;4955459;28;20222;-81
2022/01/28 06:47:47;;;;;;;13.13;2.20;;;5.40;99.90;;;;;;4955955;28;20183;-80
2022/01/28 06:50:13;;;;;;;16.83;2.60;;;5.40;99.90;;;;;;4954479;28;20190;-80
2022/01/28 06:52:41;;;;;;;16.10;2.50;;;5.40;99.90;;;;;;4955851;28;20171;-80
2022/01/28 06:55:06;;;;;;;13.13;2.67;;;5.40;99.90;;;;;;4954599;28;20226;-80
2022/01/28 06:57:32;;;;;;;14.33;2.23;;;5.30;99.90;;;;;;4954678;28;20179;-80
2022/01/28 06:59:58;;;;;;;22.87;2.43;;;5.30;99.90;;;;;;4954408;28;20171;-80
2022/01/28 07:02:24;;;;;;;20.77;2.90;;;5.30;99.90;;;;;;4956167;28;20539;-80
2022/01/28 07:04:50;;;;;;;15.40;2.97;;;5.30;99.90;;;;;;4954139;28;20241;-79
2022/01/28 07:07:16;;;;;;;11.43;2.37;;;5.30;99.90;;;;;;4955756;28;20175;-80
2022/01/28 07:09:42;;;;;;;9.43;2.53;;;5.20;99.90;;;;;;4954599;28;20179;-80
2022/01/28 07:12:08;;;;;;;10.77;2.33;;;5.30;99.90;;;;;;4954168;29;20190;-81
2022/01/28 07:14:33;;;;;;;10.63;2.47;;;5.40;99.90;;;;;;4953432;28;20207;-80
2022/01/28 07:16:59;;;;;;;16.97;2.40;;;5.30;99.90;;;;;;4954610;28;20182;-80
2022/01/28 07:19:24;;;;;;;13.43;2.70;;;5.30;99.90;;;;;;4953200;28;20175;-81
2022/01/28 07:21:50;;;;;;;22.57;3.00;;;5.30;99.90;;;;;;4953409;29;20179;-80
2022/01/28 07:24:16;;;;;;;8.60;2.10;;;5.30;99.90;;;;;;4954243;28;20202;-81
2022/01/28 07:26:42;;;;;;;13.60;2.50;;;5.20;99.90;;;;;;4954532;28;20175;-80
2022/01/28 07:29:10;;;;;;;8.77;1.83;;;5.30;99.90;;;;;;4954038;29;20179;-80
2022/01/28 07:31:37;;;;;;;12.03;2.40;;;5.30;99.90;;;;;;4952812;28;20649;-80
2022/01/28 07:34:03;;;;;;;13.93;2.37;;;5.30;99.90;;;;;;4953849;29;20554;-81
2022/01/28 07:36:28;;;;;;;9.97;1.87;;;5.30;99.90;;;;;;4952562;28;20202;-80
2022/01/28 07:38:54;;;;;;;15.50;3.23;;;5.30;99.90;;;;;;4952545;28;20258;-79
2022/01/28 07:41:19;;;;;;;12.77;2.63;;;5.30;99.90;;;;;;4954992;29;20182;-80
2022/01/28 07:43:48;;;;;;;9.60;3.10;;;5.30;99.90;;;;;;4955449;28;20187;-80
2022/01/28 07:46:14;;;;;;;13.03;2.97;;;5.30;99.90;;;;;;4955460;28;20214;-80
2022/01/28 07:48:40;;;;;;;14.23;2.80;;;5.20;99.90;;;;;;4955430;28;20174;-80
2022/01/28 07:51:05;;;;;;;14.27;2.93;;;5.20;99.90;;;;;;4955759;28;20180;-80
2022/01/28 07:53:31;;;;;;;14.83;2.57;;;5.20;99.90;;;;;;4954586;28;20203;-80
2022/01/28 07:55:57;;;;;;;17.37;3.03;;;5.20;99.90;;;;;;4956335;28;20195;-80
2022/01/28 07:58:22;;;;;;;8.70;1.80;;;5.20;99.90;;;;;;4954182;29;20183;-81
2022/01/28 08:00:48;;;;;;;9.10;2.03;;;5.20;99.90;;;;;;4955024;29;20167;-80
2022/01/28 08:03:14;;;;;;;15.73;2.90;;;5.20;99.90;;;;;;4955065;28;20176;-81
2022/01/28 08:05:39;;;;;;;12.87;2.43;;;5.20;99.90;;;;;;4952849;28;20199;-80
2022/01/28 08:08:07;;;;;;;13.10;2.67;;;5.20;99.90;;;;;;4953949;29;20184;-80
2022/01/28 08:10:33;;;;;;;11.43;2.40;;;5.10;99.90;;;;;;4953940;28;20171;-80
2022/01/28 08:13:02;;;;;;;18.97;2.80;;;5.10;99.90;;;;;;4954273;28;20183;-80
2022/01/28 08:15:27;;;;;;;12.10;2.17;;;5.10;99.90;;;;;;4954172;28;20685;-80
2022/01/28 08:17:53;;;;;;;11.40;2.43;;;5.10;99.90;;;;;;4963281;28;20168;-80
2022/01/28 08:20:18;;;;;;;17.47;2.63;;;5.10;99.90;;;;;;4960736;28;20228;-80
2022/01/28 08:22:49;;;;;;;10.47;2.77;;;5.10;99.90;;;;;;4952816;28;20187;-80
2022/01/28 08:25:16;;;;;;;15.60;2.67;;;5.10;99.90;;;;;;4953083;28;20588;-80
2022/01/28 08:27:43;;;;;;;15.63;2.23;;;5.10;99.90;;;;;;4955068;28;20179;-80
2022/01/28 08:30:11;;;;;;;14.67;3.13;;;5.00;99.90;;;;;;4954994;28;20182;-80
2022/01/28 08:32:36;;;;;;;12.70;2.73;;;5.00;99.90;;;;;;4954079;29;20217;-80
2022/01/28 08:35:02;;;;;;;8.90;2.03;;;5.00;99.90;;;;;;4953508;28;20219;-80
2022/01/28 08:37:27;;;;;;;14.03;2.53;;;5.00;99.90;;;;;;4954767;28;20175;-80
2022/01/28 08:39:53;;;;;;;15.40;3.23;;;5.10;99.90;;;;;;4953298;28;20194;-80
2022/01/28 08:42:19;;;;;;;15.17;2.67;;;5.00;99.90;;;;;;4955710;29;20171;-80
2022/01/28 08:44:44;;;;;;;15.53;2.47;;;5.00;99.90;;;;;;4953460;28;20214;-81
2022/01/28 08:47:10;;;;;;;12.43;2.13;;;5.00;99.90;;;;;;4955153;29;20180;-80
2022/01/28 08:49:36;;;;;;;12.70;2.30;;;5.00;99.90;;;;;;4956145;28;20204;-80
2022/01/28 08:52:02;;;;;;;17.00;2.47;;;5.00;99.90;;;;;;4953350;28;20171;-81
2022/01/28 08:54:28;;;;;;;12.00;2.40;;;5.00;99.90;;;;;;4951665;28;20606;-81
2022/01/28 08:56:54;;;;;;;8.00;2.20;;;5.10;99.90;;;;;;4951468;28;20225;-80
2022/01/28 08:59:19;;;;;;;13.67;2.80;;;5.10;99.90;;;;;;4951777;29;20175;-81
2022/01/28 09:01:45;;;;;;;15.77;2.73;;;5.20;99.90;;;;;;4951034;28;20644;-80
2022/01/28 09:04:11;;;;;;;11.00;1.83;;;5.20;99.90;;;;;;4952696;28;20198;-81
2022/01/28 09:06:36;;;;;;;16.30;2.60;;;5.30;99.90;;;;;;4951267;28;20688;-81
2022/01/28 09:09:03;;;;;;;12.10;2.27;;;5.30;99.90;;;;;;4952478;28;20270;-80
2022/01/28 09:11:32;;;;;;;8.47;2.20;;;5.40;99.90;;;;;;4957016;28;20182;-80
2022/01/28 09:13:58;;;;;;;12.20;2.60;;;5.40;99.90;;;;;;4953279;28;20260;-80
2022/01/28 09:16:24;;;;;;;9.03;2.63;;;5.40;99.90;;;;;;4954367;28;20191;-80
2022/01/28 09:18:50;;;;;;;8.80;2.33;;;5.40;99.90;;;;;;4953424;29;20309;-80
2022/01/28 09:21:16;;;;;;;17.37;2.70;;;5.50;99.90;;;;;;4951775;29;20175;-81
2022/01/28 09:23:42;;;;;;;17.57;2.63;;;5.60;99.90;;;;;;4953614;28;20446;-81
2022/01/28 09:26:08;;;;;;;19.37;3.40;;;5.70;99.90;;;;;;4951378;28;20199;-80
2022/01/28 09:28:33;;;;;;;16.90;2.53;;;5.70;99.90;;;;;;4951372;28;20205;-81
2022/01/28 09:30:59;;;;;;;12.67;2.60;;;5.80;99.90;;;;;;4951387;28;20190;-80
2022/01/28 09:33:24;;;;;;;11.37;2.43;;;5.90;99.90;;;;;;4951213;28;20203;-80
2022/01/28 09:35:50;;;;;;;12.97;3.00;;;5.90;99.90;;;;;;4952332;28;20265;-81
2022/01/28 09:38:16;;;;;;;15.10;3.53;;;5.90;99.90;;;;;;4951219;28;20707;-80
2022/01/28 09:40:42;;;;;;;20.60;3.33;;;5.90;99.90;;;;;;4951108;28;20681;-80
2022/01/28 09:43:09;;;;;;;16.33;2.63;;;5.90;99.90;;;;;;4950986;28;20175;-80
2022/01/28 09:45:35;;;;;;;11.70;3.00;;;5.90;99.90;;;;;;4950929;28;20219;-81
2022/01/28 09:48:01;;;;;;;12.27;2.80;;;5.90;99.90;;;;;;4950925;28;20175;-80
2022/01/28 09:50:29;;;;;;;17.30;2.83;;;6.00;99.90;;;;;;4950829;29;20208;-81
2022/01/28 09:52:56;;;;;;;10.03;2.33;;;6.00;99.90;;;;;;4950719;28;20648;-81
2022/01/28 09:55:24;;;;;;;13.30;2.83;;;5.90;99.90;;;;;;4950912;28;20293;-81
2022/01/28 09:57:59;;;;;;;16.07;2.57;;;6.00;99.90;;;;;;4950887;28;20297;-81
2022/01/28 10:00:25;;;;;;;8.57;2.90;;;6.00;99.90;;;;;;4952362;28;20155;-81
2022/01/28 10:02:59;;;;;;;14.80;2.80;;;6.00;99.90;;;;;;4951088;28;20182;-81
2022/01/28 10:05:31;;;;;;;14.20;2.53;;;6.00;99.90;;;;;;4951083;28;20195;-82
2022/01/28 10:08:02;;;;;;;7.63;2.13;;;6.00;99.90;;;;;;4952187;28;20179;-82
2022/01/28 10:10:42;;;;;;;13.40;2.90;;;6.00;99.90;;;;;;4952066;28;20726;-79
2022/01/28 10:13:16;;;;;;;10.03;2.80;;;6.10;99.90;;;;;;4951550;28;20274;-80
2022/01/28 10:15:53;;;;;;;12.00;2.67;;;6.10;99.90;;;;;;4954139;28;20195;-80
2022/01/28 10:18:18;;;;;;;15.03;3.17;;;6.20;99.90;;;;;;4955518;28;20629;-80
2022/01/28 10:20:44;;;;;;;14.00;3.33;;;6.20;99.90;;;;;;4954322;29;20185;-81
2022/01/28 10:23:12;;;;;;;15.70;2.50;;;6.30;99.90;;;;;;4955203;28;20620;-79
2022/01/28 10:25:38;;;;;;;13.20;2.93;;;6.30;99.90;;;;;;4955461;28;20195;-79
2022/01/28 10:28:09;;;;;;;10.00;2.60;;;6.30;99.90;;;;;;4957068;29;20585;-79
2022/01/28 10:30:36;;;;;;;11.60;2.63;;;6.30;99.90;;;;;;4955468;29;20553;-79
2022/01/28 10:33:17;;;;;;;17.67;2.80;;;6.30;99.90;;;;;;4957581;28;20183;-79
2022/01/28 10:35:51;;;;;;;13.10;3.30;;;6.40;99.90;;;;;;4957671;28;20270;-79
2022/01/28 10:38:35;;;;;;;10.80;2.67;;;6.40;99.90;;;;;;4957427;28;20250;-79
2022/01/28 10:41:18;;;;;;;12.83;3.27;;;6.50;99.90;;;;;;4956904;28;20175;-79
2022/01/28 10:43:47;;;;;;;15.53;3.20;;;6.50;99.90;;;;;;4956494;28;20202;-79
2022/01/28 10:46:21;;;;;;;15.30;2.57;;;6.50;99.90;;;;;;4956273;28;20550;-80
2022/01/28 10:49:16;;;;;;;18.20;3.40;;;6.60;99.90;;;;;;4956259;29;20691;-80
2022/01/28 10:51:49;;;;;;;12.50;2.77;;;6.60;99.90;;;;;;4970023;28;20191;-80
2022/01/28 10:54:22;;;;;;;14.20;3.40;;;6.60;99.90;;;;;;4957529;28;20718;-80
2022/01/28 10:56:54;;;;;;;14.40;3.10;;;6.60;99.90;;;;;;4958125;28;20174;-80
2022/01/28 10:59:22;;;;;;;15.00;3.53;;;6.60;99.90;;;;;;4958450;28;20495;-80
2022/01/28 11:01:49;;;;;;;14.13;2.93;;;6.70;99.90;;;;;;4958567;28;20581;-80
2022/01/28 11:04:16;;;;;;;11.97;2.70;;;6.70;99.90;;;;;;4956394;28;20179;-80
2022/01/28 11:06:43;;;;;;;15.67;3.23;;;6.70;99.90;;;;;;4955616;29;20221;-80
2022/01/28 11:09:09;;;;;;;15.77;3.20;;;6.70;99.90;;;;;;4957137;28;20182;-82
2022/01/28 11:11:36;;;;;;;15.73;2.87;;;6.80;99.90;;;;;;4958123;28;20186;-80
2022/01/28 11:14:03;;;;;;;20.53;2.90;;;6.80;99.90;;;;;;4955835;28;20618;-81
2022/01/28 11:16:28;;;;;;;11.90;2.43;;;6.80;99.90;;;;;;4957182;28;20190;-80
2022/01/28 11:18:55;;;;;;;15.67;2.90;;;6.90;99.90;;;;;;4959486;29;20174;-79
2022/01/28 11:21:42;;;;;;;16.43;2.50;;;6.90;99.90;;;;;;4963403;28;20179;-78
2022/01/28 11:24:31;;;;;;;14.63;2.23;;;7.00;99.90;;;;;;4956768;29;20616;-79
2022/01/28 11:27:37;;;;;;;13.47;2.83;;;7.00;99.90;;;;;;4954990;29;20163;-79
2022/01/28 11:30:25;;;;;;;13.43;2.63;;;7.10;99.90;;;;;;4954208;28;20241;-77
2022/01/28 11:33:06;;;;;;;14.60;3.00;;;7.10;99.90;;;;;;4955076;28;20164;-77
2022/01/28 11:35:39;;;;;;;13.90;2.97;;;7.20;99.90;;;;;;4953130;28;20207;-77
2022/01/28 11:38:23;;;;;;;13.40;2.67;;;7.10;99.90;;;;;;4953380;29;20174;-77
2022/01/28 11:40:55;;;;;;;17.67;2.83;;;7.20;99.90;;;;;;4953232;28;20177;-77
2022/01/28 11:43:25;;;;;;;15.57;2.50;;;7.20;99.90;;;;;;4953891;28;20235;-78
2022/01/28 11:46:16;;;;;;;18.33;3.13;;;7.20;99.90;;;;;;4955261;28;20289;-77
2022/01/28 11:49:03;;;;;;;16.30;3.17;;;7.20;99.90;;;;;;4954400;28;20223;-78
2022/01/28 11:51:41;;;;;;;13.13;2.33;;;7.20;99.90;;;;;;4963596;28;20183;-78
2022/01/28 11:54:34;;;;;;;15.50;3.13;;;7.10;99.90;;;;;;4953096;28;20210;-78
2022/01/28 11:57:01;;;;;;;11.30;2.90;;;7.10;99.90;;;;;;4954255;28;20353;-78
2022/01/28 11:59:30;;;;;;;15.27;3.13;;;7.10;99.90;;;;;;4952980;28;20238;-77
2022/01/28 12:01:59;;;;;;;16.73;2.77;;;7.10;99.90;;;;;;4954222;29;20171;-78
2022/01/28 12:04:29;;;;;;;10.63;2.57;;;7.10;99.90;;;;;;4954216;28;20178;-78
2022/01/28 12:06:54;;;;;;;13.30;2.63;;;7.20;99.90;;;;;;4955327;29;20182;-79
2022/01/28 12:09:22;;;;;;;14.17;2.50;;;7.20;99.90;;;;;;4955540;28;20179;-79
2022/01/28 12:11:47;;;;;;;16.73;2.43;;;7.20;99.90;;;;;;4954883;28;20209;-78
2022/01/28 12:14:14;;;;;;;14.13;3.03;;;7.20;99.90;;;;;;4954610;28;20202;-79
2022/01/28 12:16:46;;;;;;;11.60;2.43;;;7.20;99.90;;;;;;4952927;28;20202;-78
2022/01/28 12:19:16;;;;;;;16.50;2.67;;;7.20;99.90;;;;;;4953591;28;20155;-78
2022/01/28 12:22:07;;;;;;;13.37;2.27;;;7.20;99.90;;;;;;4953200;28;20533;-77
2022/01/28 12:24:34;;;;;;;15.57;2.53;;;7.10;99.90;;;;;;4953408;28;20171;-77
2022/01/28 12:27:10;;;;;;;13.93;3.27;;;7.20;99.90;;;;;;4952146;28;20183;-78
2022/01/28 12:29:44;;;;;;;16.00;2.83;;;7.20;99.90;;;;;;4953536;28;20265;-78
2022/01/28 12:32:11;;;;;;;14.20;2.87;;;7.30;99.90;;;;;;4952132;29;20192;-78
2022/01/28 12:34:46;;;;;;;21.40;3.50;;;7.40;99.90;;;;;;4952275;28;20215;-78
2022/01/28 12:37:12;;;;;;;12.20;2.83;;;7.50;99.90;;;;;;4951199;28;20165;-78
2022/01/28 12:39:43;;;;;;;15.63;5.57;;;7.60;99.90;;;;;;4953208;29;20193;-77
2022/01/28 12:42:22;;;;;;;12.37;2.60;;;7.70;99.90;;;;;;4953530;29;20502;-78
2022/01/28 12:45:00;;;;;;;12.30;2.97;;;7.80;99.90;;;;;;4953209;28;20243;-78
2022/01/28 12:47:31;;;;;;;14.20;3.50;;;7.80;99.90;;;;;;4952784;28;20182;-78
2022/01/28 12:50:03;;;;;;;12.37;2.93;;;7.80;99.90;;;;;;4951561;29;20201;-77
2022/01/28 12:52:34;;;;;;;17.23;4.03;;;7.90;99.90;;;;;;4952160;28;20171;-77
2022/01/28 12:55:00;;;;;;;9.97;2.83;;;8.00;99.90;;;;;;4953066;28;20217;-77
2022/01/28 12:57:26;;;;;;;9.30;1.77;;;8.10;99.90;;;;;;4953376;28;20549;-79
2022/01/28 12:59:52;;;;;;;11.27;2.10;;;8.10;99.90;;;;;;4952862;28;20186;-77
2022/01/28 13:02:18;;;;;;;8.10;1.60;;;8.10;99.90;;;;;;4952036;28;20186;-78
2022/01/28 13:10:28;;;;;;;8.70;2.33;;;8.20;99.90;;;;;;4952180;29;20265;-76
2022/01/28 13:13:03;;;;;;;10.73;2.27;;;8.20;99.90;;;;;;4952263;28;20179;-77
2022/01/28 13:15:29;;;;;;;8.43;2.27;;;8.20;99.90;;;;;;4950675;28;20302;-77
2022/01/28 13:18:01;;;;;;;8.47;1.80;;;8.40;99.90;;;;;;4951723;28;20183;-77
2022/01/28 13:20:41;;;;;;;9.00;2.37;;;8.50;99.90;;;;;;4951958;28;20183;-77
2022/01/28 13:23:09;;;;;;;11.30;2.10;;;8.50;99.90;;;;;;4952296;28;20178;-77
2022/01/28 13:25:35;;;;;;;13.60;2.97;;;8.50;99.90;;;;;;4951090;28;20214;-77
2022/01/28 13:28:04;;;;;;;14.50;3.30;;;8.50;99.90;;;;;;4952775;28;20197;-77
2022/01/28 13:30:38;;;;;;;12.23;2.53;;;8.50;99.90;;;;;;4951906;29;20683;-78
2022/01/28 13:33:06;;;;;;;12.43;2.63;;;8.60;99.90;;;;;;4952408;28;20229;-78
2022/01/28 13:35:35;;;;;;;11.83;2.60;;;8.60;99.90;;;;;;4950792;28;20206;-80
2022/01/28 13:38:06;;;;;;;9.43;2.67;;;8.60;99.90;;;;;;4951541;28;20178;-78
2022/01/28 13:40:35;;;;;;;12.50;2.23;;;8.60;99.90;;;;;;4952917;28;20632;-78
2022/01/28 13:43:17;;;;;;;9.47;1.93;;;8.60;99.90;;;;;;4951228;29;20552;-79
2022/01/28 13:45:58;;;;;;;9.60;1.90;;;8.60;99.90;;;;;;4950814;28;20707;-79
2022/01/28 13:48:34;;;;;;;13.23;2.17;;;8.60;99.90;;;;;;4952005;28;20297;-79
2022/01/28 13:51:07;;;;;;;15.73;2.80;;;8.50;99.90;;;;;;4955895;28;20181;-79
2022/01/28 13:56:34;;;;;;;11.73;3.03;;;8.50;99.90;;;;;;4955375;28;20231;-79
2022/01/28 13:59:00;;;;;;;8.30;2.07;;;8.50;1.00;;;;;;4954517;28;20186;-79
2022/01/28 14:01:28;;;;;;;9.00;1.97;;;8.40;1.00;;;;;;4955737;28;20269;-78
2022/01/28 14:03:59;;;;;;;11.40;1.90;;;8.40;99.90;;;;;;4955395;28;20229;-78
2022/01/28 14:06:27;;;;;;;10.87;2.27;;;8.30;1.00;;;;;;4955285;28;20229;-78
2022/01/28 14:09:04;;;;;;;8.27;2.00;;;8.30;1.00;;;;;;4955845;28;20183;-78
2022/01/28 14:11:36;;;;;;;11.63;2.57;;;8.20;52.50;;;;;;4954470;28;20201;-79
2022/01/28 14:14:26;;;;;;;11.67;2.70;;;8.20;99.90;;;;;;4954989;29;20671;-78
2022/01/28 14:17:07;;;;;;;9.27;2.60;;;8.20;99.90;;;;;;4956249;28;20200;-78
2022/01/28 14:19:35;;;;;;;6.33;1.63;;;8.30;99.90;;;;;;4960079;28;20171;-78
2022/01/28 14:22:02;;;;;;;9.67;2.20;;;8.30;99.90;;;;;;4956019;28;20199;-77
2022/01/28 14:24:33;;;;;;;12.23;2.50;;;8.30;99.90;;;;;;4954932;28;20199;-78